sensor_id;sensor_type;location;lat;lon;timestamp;pressure;altitude;pressure_sealevel;temperature;humidity
43147;BME280;28752;48.266;7.402;2023-01-10T00:01:21;99355.38;;;5.90;89.80
43147;BME280;28752;48.266;7.402;2023-01-10T00:03:46;99365.53;;;5.95;89.68
43147;BME280;28752;48.266;7.402;2023-01-10T00:06:12;99377.25;;;5.91;90.07
43147;BME280;28752;48.266;7.402;2023-01-10T00:08:37;99380.66;;;5.80;90.21
43147;BME280;28752;48.266;7.402;2023-01-10T00:11:03;99382.34;;;5.81;88.97
43147;BME280;28752;48.266;7.402;2023-01-10T00:13:52;99374.00;;;5.87;89.70
43147;BME280;28752;48.266;7.402;2023-01-10T00:16:17;99382.72;;;5.87;90.24
43147;BME280;28752;48.266;7.402;2023-01-10T00:18:43;99385.81;;;5.81;91.13
43147;BME280;28752;48.266;7.402;2023-01-10T00:21:10;99386.91;;;5.79;91.31
43147;BME280;28752;48.266;7.402;2023-01-10T00:23:35;99395.81;;;5.65;89.20
43147;BME280;28752;48.266;7.402;2023-01-10T00:26:00;99389.03;;;5.74;90.55
43147;BME280;28752;48.266;7.402;2023-01-10T00:28:26;99399.06;;;5.80;90.90
43147;BME280;28752;48.266;7.402;2023-01-10T00:30:53;99387.84;;;5.78;90.82
43147;BME280;28752;48.266;7.402;2023-01-10T00:33:20;99400.38;;;5.74;89.25
43147;BME280;28752;48.266;7.402;2023-01-10T00:35:46;99399.41;;;5.64;89.59
43147;BME280;28752;48.266;7.402;2023-01-10T00:38:12;99404.19;;;5.70;89.47
43147;BME280;28752;48.266;7.402;2023-01-10T00:40:39;99406.59;;;5.73;88.34
43147;BME280;28752;48.266;7.402;2023-01-10T00:43:05;99417.81;;;5.75;86.54
43147;BME280;28752;48.266;7.402;2023-01-10T00:45:48;99420.53;;;5.74;87.81
43147;BME280;28752;48.266;7.402;2023-01-10T00:48:14;99430.34;;;5.72;88.31
43147;BME280;28752;48.266;7.402;2023-01-10T00:50:40;99449.97;;;5.79;87.49
43147;BME280;28752;48.266;7.402;2023-01-10T00:53:06;99456.28;;;5.76;86.58
43147;BME280;28752;48.266;7.402;2023-01-10T00:55:32;99458.44;;;5.82;86.91
43147;BME280;28752;48.266;7.402;2023-01-10T00:57:57;99456.88;;;5.80;86.78
43147;BME280;28752;48.266;7.402;2023-01-10T01:00:23;99467.78;;;5.86;86.52
43147;BME280;28752;48.266;7.402;2023-01-10T01:02:48;99470.13;;;5.78;87.48
43147;BME280;28752;48.266;7.402;2023-01-10T01:05:16;99465.28;;;5.61;87.14
43147;BME280;28752;48.266;7.402;2023-01-10T01:07:41;99476.59;;;5.74;85.54
43147;BME280;28752;48.266;7.402;2023-01-10T01:10:07;99475.13;;;5.70;86.21
43147;BME280;28752;48.266;7.402;2023-01-10T01:12:51;99496.81;;;5.61;86.99
43147;BME280;28752;48.266;7.402;2023-01-10T01:15:17;99505.63;;;5.60;86.31
43147;BME280;28752;48.266;7.402;2023-01-10T01:17:42;99513.75;;;5.57;85.55
43147;BME280;28752;48.266;7.402;2023-01-10T01:20:08;99514.97;;;5.64;86.23
43147;BME280;28752;48.266;7.402;2023-01-10T01:22:34;99520.56;;;5.59;86.80
43147;BME280;28752;48.266;7.402;2023-01-10T01:24:59;99535.16;;;5.63;83.95
43147;BME280;28752;48.266;7.402;2023-01-10T01:27:25;99529.28;;;5.60;84.82
43147;BME280;28752;48.266;7.402;2023-01-10T01:29:50;99546.09;;;5.57;86.33
43147;BME280;28752;48.266;7.402;2023-01-10T01:32:15;99545.38;;;5.55;84.70
43147;BME280;28752;48.266;7.402;2023-01-10T01:34:41;99544.81;;;5.63;83.75
43147;BME280;28752;48.266;7.402;2023-01-10T01:37:07;99554.72;;;5.59;83.54
43147;BME280;28752;48.266;7.402;2023-01-10T01:39:32;99543.09;;;5.50;85.24
43147;BME280;28752;48.266;7.402;2023-01-10T01:41:58;99572.75;;;5.40;85.55
43147;BME280;28752;48.266;7.402;2023-01-10T01:44:29;99557.97;;;5.26;85.96
43147;BME280;28752;48.266;7.402;2023-01-10T01:49:29;99578.13;;;5.25;85.76
43147;BME280;28752;48.266;7.402;2023-01-10T01:52:01;99577.81;;;5.30;85.27
43147;BME280;28752;48.266;7.402;2023-01-10T01:54:30;99577.19;;;5.26;84.49
43147;BME280;28752;48.266;7.402;2023-01-10T01:57:04;99575.91;;;5.32;84.39
43147;BME280;28752;48.266;7.402;2023-01-10T01:59:42;99586.00;;;5.25;84.05
43147;BME280;28752;48.266;7.402;2023-01-10T02:02:22;99582.34;;;5.15;85.11
43147;BME280;28752;48.266;7.402;2023-01-10T02:04:59;99590.13;;;5.16;85.87
43147;BME280;28752;48.266;7.402;2023-01-10T02:07:27;99594.41;;;5.18;84.22
43147;BME280;28752;48.266;7.402;2023-01-10T02:10:03;99599.56;;;5.19;83.05
43147;BME280;28752;48.266;7.402;2023-01-10T02:12:31;99610.69;;;5.23;83.89
43147;BME280;28752;48.266;7.402;2023-01-10T02:14:57;99612.56;;;5.21;85.02
43147;BME280;28752;48.266;7.402;2023-01-10T02:17:23;99620.16;;;5.12;84.39
43147;BME280;28752;48.266;7.402;2023-01-10T02:19:59;99646.09;;;5.17;85.30
43147;BME280;28752;48.266;7.402;2023-01-10T02:36:55;99670.53;;;5.18;86.45
43147;BME280;28752;48.266;7.402;2023-01-10T02:39:30;99678.09;;;5.22;84.82
43147;BME280;28752;48.266;7.402;2023-01-10T02:42:03;99689.00;;;5.16;85.73
43147;BME280;28752;48.266;7.402;2023-01-10T02:44:46;99702.06;;;5.30;85.20
43147;BME280;28752;48.266;7.402;2023-01-10T02:47:14;99696.25;;;5.25;85.94
43147;BME280;28752;48.266;7.402;2023-01-10T02:49:44;99691.31;;;5.21;85.14
43147;BME280;28752;48.266;7.402;2023-01-10T02:52:12;99700.38;;;5.29;84.62
43147;BME280;28752;48.266;7.402;2023-01-10T02:54:40;99696.06;;;5.15;85.55
43147;BME280;28752;48.266;7.402;2023-01-10T03:03:22;99692.06;;;5.10;84.68
43147;BME280;28752;48.266;7.402;2023-01-10T03:11:03;99715.25;;;5.16;84.96
43147;BME280;28752;48.266;7.402;2023-01-10T03:13:35;99711.09;;;5.13;84.28
43147;BME280;28752;48.266;7.402;2023-01-10T03:16:03;99710.75;;;5.05;84.86
43147;BME280;28752;48.266;7.402;2023-01-10T03:18:39;99726.19;;;5.10;84.85
43147;BME280;28752;48.266;7.402;2023-01-10T03:21:06;99731.03;;;5.03;85.55
43147;BME280;28752;48.266;7.402;2023-01-10T03:23:33;99733.13;;;4.98;86.31
43147;BME280;28752;48.266;7.402;2023-01-10T03:25:59;99751.59;;;4.96;85.80
43147;BME280;28752;48.266;7.402;2023-01-10T03:28:38;99740.25;;;4.96;86.26
43147;BME280;28752;48.266;7.402;2023-01-10T03:31:10;99757.56;;;4.98;86.58
43147;BME280;28752;48.266;7.402;2023-01-10T03:33:38;99753.34;;;4.96;86.62
43147;BME280;28752;48.266;7.402;2023-01-10T03:38:53;99767.34;;;5.09;85.34
43147;BME280;28752;48.266;7.402;2023-01-10T03:46:55;99779.84;;;5.19;87.09
43147;BME280;28752;48.266;7.402;2023-01-10T03:49:24;99798.84;;;5.22;86.56
43147;BME280;28752;48.266;7.402;2023-01-10T03:51:51;99782.91;;;5.12;87.30
43147;BME280;28752;48.266;7.402;2023-01-10T03:54:17;99802.13;;;5.26;88.00
43147;BME280;28752;48.266;7.402;2023-01-10T03:56:46;99800.03;;;5.18;88.86
43147;BME280;28752;48.266;7.402;2023-01-10T03:59:14;99788.97;;;5.13;89.61
43147;BME280;28752;48.266;7.402;2023-01-10T04:01:40;99784.78;;;5.10;88.82
43147;BME280;28752;48.266;7.402;2023-01-10T04:04:05;99806.72;;;5.09;91.04
43147;BME280;28752;48.266;7.402;2023-01-10T04:06:31;99825.09;;;5.09;90.71
43147;BME280;28752;48.266;7.402;2023-01-10T04:08:56;99823.84;;;5.15;90.39
43147;BME280;28752;48.266;7.402;2023-01-10T04:11:21;99815.31;;;5.11;90.89
43147;BME280;28752;48.266;7.402;2023-01-10T04:13:50;99831.63;;;5.16;91.17
43147;BME280;28752;48.266;7.402;2023-01-10T04:16:15;99847.47;;;5.15;90.20
43147;BME280;28752;48.266;7.402;2023-01-10T04:18:41;99838.94;;;5.11;90.09
43147;BME280;28752;48.266;7.402;2023-01-10T04:21:06;99854.19;;;5.19;89.79
43147;BME280;28752;48.266;7.402;2023-01-10T04:23:31;99840.84;;;5.09;90.79
43147;BME280;28752;48.266;7.402;2023-01-10T04:25:57;99835.16;;;5.03;90.13
43147;BME280;28752;48.266;7.402;2023-01-10T04:28:22;99852.44;;;5.20;88.96
43147;BME280;28752;48.266;7.402;2023-01-10T04:30:48;99850.50;;;5.09;89.46
43147;BME280;28752;48.266;7.402;2023-01-10T04:33:13;99843.34;;;4.98;89.61
43147;BME280;28752;48.266;7.402;2023-01-10T04:35:38;99861.53;;;5.14;90.03
43147;BME280;28752;48.266;7.402;2023-01-10T04:38:04;99866.91;;;5.12;89.97
43147;BME280;28752;48.266;7.402;2023-01-10T04:40:29;99875.09;;;5.21;88.61
43147;BME280;28752;48.266;7.402;2023-01-10T04:42:54;99872.47;;;5.21;88.01
43147;BME280;28752;48.266;7.402;2023-01-10T04:45:20;99886.00;;;5.14;89.38
43147;BME280;28752;48.266;7.402;2023-01-10T04:47:52;99884.47;;;5.25;89.12
43147;BME280;28752;48.266;7.402;2023-01-10T04:50:20;99875.00;;;5.22;89.93
43147;BME280;28752;48.266;7.402;2023-01-10T04:52:46;99879.63;;;5.19;89.73
43147;BME280;28752;48.266;7.402;2023-01-10T04:55:11;99885.66;;;5.06;91.21
43147;BME280;28752;48.266;7.402;2023-01-10T04:57:36;99894.28;;;5.08;89.02
43147;BME280;28752;48.266;7.402;2023-01-10T05:00:02;99890.31;;;5.15;89.11
43147;BME280;28752;48.266;7.402;2023-01-10T05:02:28;99890.00;;;5.07;90.19
43147;BME280;28752;48.266;7.402;2023-01-10T05:04:53;99897.88;;;5.07;90.61
43147;BME280;28752;48.266;7.402;2023-01-10T05:07:18;99892.91;;;5.03;90.90
43147;BME280;28752;48.266;7.402;2023-01-10T05:09:44;99899.28;;;4.98;91.53
43147;BME280;28752;48.266;7.402;2023-01-10T05:12:09;99901.84;;;4.86;91.66
43147;BME280;28752;48.266;7.402;2023-01-10T05:14:34;99896.34;;;4.76;90.98
43147;BME280;28752;48.266;7.402;2023-01-10T05:16:59;99916.94;;;4.82;90.32
43147;BME280;28752;48.266;7.402;2023-01-10T05:19:25;99897.88;;;4.66;89.69
43147;BME280;28752;48.266;7.402;2023-01-10T05:21:50;99917.16;;;4.79;89.28
43147;BME280;28752;48.266;7.402;2023-01-10T05:24:17;99914.38;;;4.68;89.33
43147;BME280;28752;48.266;7.402;2023-01-10T05:26:42;99915.97;;;4.56;89.99
43147;BME280;28752;48.266;7.402;2023-01-10T05:29:10;99940.41;;;4.56;89.97
43147;BME280;28752;48.266;7.402;2023-01-10T05:31:35;99940.59;;;4.68;89.39
43147;BME280;28752;48.266;7.402;2023-01-10T05:34:01;99921.50;;;4.51;88.57
43147;BME280;28752;48.266;7.402;2023-01-10T05:36:26;99939.66;;;4.54;88.23
43147;BME280;28752;48.266;7.402;2023-01-10T05:38:52;99941.06;;;4.45;88.93
43147;BME280;28752;48.266;7.402;2023-01-10T05:41:17;99941.06;;;4.45;88.82
43147;BME280;28752;48.266;7.402;2023-01-10T05:43:42;99930.94;;;4.25;89.19
43147;BME280;28752;48.266;7.402;2023-01-10T05:46:08;99943.88;;;4.28;88.48
43147;BME280;28752;48.266;7.402;2023-01-10T05:48:34;99929.19;;;4.25;88.55
43147;BME280;28752;48.266;7.402;2023-01-10T05:50:59;99940.78;;;4.21;88.96
43147;BME280;28752;48.266;7.402;2023-01-10T05:53:25;99948.75;;;4.20;89.38
43147;BME280;28752;48.266;7.402;2023-01-10T05:56:00;99958.94;;;4.24;88.88
43147;BME280;28752;48.266;7.402;2023-01-10T05:58:26;99960.53;;;4.13;89.74
43147;BME280;28752;48.266;7.402;2023-01-10T06:00:53;99958.81;;;3.97;91.21
43147;BME280;28752;48.266;7.402;2023-01-10T06:03:19;99963.50;;;3.92;91.95
43147;BME280;28752;48.266;7.402;2023-01-10T06:05:45;99952.16;;;3.91;91.45
43147;BME280;28752;48.266;7.402;2023-01-10T06:08:10;99961.97;;;3.88;91.77
43147;BME280;28752;48.266;7.402;2023-01-10T06:10:35;100000.66;;;3.99;91.88
43147;BME280;28752;48.266;7.402;2023-01-10T06:13:01;99975.16;;;3.86;92.30
43147;BME280;28752;48.266;7.402;2023-01-10T06:15:26;99979.97;;;3.94;93.02
43147;BME280;28752;48.266;7.402;2023-01-10T06:17:52;99983.41;;;3.95;93.07
43147;BME280;28752;48.266;7.402;2023-01-10T06:20:18;99979.66;;;3.84;92.60
43147;BME280;28752;48.266;7.402;2023-01-10T06:22:43;99983.50;;;3.93;92.51
43147;BME280;28752;48.266;7.402;2023-01-10T06:25:09;99984.44;;;3.92;92.03
43147;BME280;28752;48.266;7.402;2023-01-10T06:27:38;99984.63;;;3.89;90.85
43147;BME280;28752;48.266;7.402;2023-01-10T06:30:04;99988.84;;;3.91;90.23
43147;BME280;28752;48.266;7.402;2023-01-10T06:32:30;100004.38;;;3.95;91.08
43147;BME280;28752;48.266;7.402;2023-01-10T06:34:55;100011.72;;;4.04;91.32
43147;BME280;28752;48.266;7.402;2023-01-10T06:37:21;100019.59;;;4.04;90.25
43147;BME280;28752;48.266;7.402;2023-01-10T06:39:47;100031.25;;;3.98;90.63
43147;BME280;28752;48.266;7.402;2023-01-10T06:42:12;100033.69;;;4.01;90.85
43147;BME280;28752;48.266;7.402;2023-01-10T06:44:37;100035.47;;;4.01;91.45
43147;BME280;28752;48.266;7.402;2023-01-10T06:47:03;100032.53;;;3.91;93.19
43147;BME280;28752;48.266;7.402;2023-01-10T06:49:28;100033.78;;;4.00;93.84
43147;BME280;28752;48.266;7.402;2023-01-10T06:51:54;100028.75;;;3.81;93.94
43147;BME280;28752;48.266;7.402;2023-01-10T06:54:19;100043.25;;;3.72;95.47
43147;BME280;28752;48.266;7.402;2023-01-10T06:56:47;100039.84;;;3.70;95.91
43147;BME280;28752;48.266;7.402;2023-01-10T06:59:12;100021.47;;;3.55;96.32
43147;BME280;28752;48.266;7.402;2023-01-10T07:01:38;100039.44;;;3.62;97.18
43147;BME280;28752;48.266;7.402;2023-01-10T07:04:03;100023.41;;;3.36;97.15
43147;BME280;28752;48.266;7.402;2023-01-10T07:06:29;100032.03;;;3.54;95.39
43147;BME280;28752;48.266;7.402;2023-01-10T07:08:54;100029.50;;;3.52;92.41
43147;BME280;28752;48.266;7.402;2023-01-10T07:11:20;100047.81;;;3.52;91.57
43147;BME280;28752;48.266;7.402;2023-01-10T07:13:45;100056.16;;;3.75;88.69
43147;BME280;28752;48.266;7.402;2023-01-10T07:16:13;100069.16;;;3.77;87.84
43147;BME280;28752;48.266;7.402;2023-01-10T07:18:40;100063.50;;;3.84;88.17
43147;BME280;28752;48.266;7.402;2023-01-10T07:21:06;100069.41;;;3.88;87.78
43147;BME280;28752;48.266;7.402;2023-01-10T07:23:32;100074.25;;;3.80;88.39
43147;BME280;28752;48.266;7.402;2023-01-10T07:26:02;100073.63;;;3.90;87.83
43147;BME280;28752;48.266;7.402;2023-01-10T07:28:29;100085.19;;;3.86;88.77
43147;BME280;28752;48.266;7.402;2023-01-10T07:30:57;100089.00;;;3.81;89.92
43147;BME280;28752;48.266;7.402;2023-01-10T07:33:23;100094.50;;;3.76;90.88
43147;BME280;28752;48.266;7.402;2023-01-10T07:35:49;100089.97;;;3.80;90.85
43147;BME280;28752;48.266;7.402;2023-01-10T07:38:14;100090.03;;;3.78;92.18
43147;BME280;28752;48.266;7.402;2023-01-10T07:40:39;100085.72;;;3.77;92.36
43147;BME280;28752;48.266;7.402;2023-01-10T07:43:05;100095.78;;;3.85;92.54
43147;BME280;28752;48.266;7.402;2023-01-10T07:45:30;100115.69;;;4.03;91.80
43147;BME280;28752;48.266;7.402;2023-01-10T07:48:00;100117.69;;;4.14;91.69
43147;BME280;28752;48.266;7.402;2023-01-10T07:50:27;100118.56;;;4.15;91.98
43147;BME280;28752;48.266;7.402;2023-01-10T07:52:53;100127.06;;;4.34;91.44
43147;BME280;28752;48.266;7.402;2023-01-10T07:55:19;100108.72;;;4.18;92.19
43147;BME280;28752;48.266;7.402;2023-01-10T07:57:44;100126.00;;;4.37;92.43
43147;BME280;28752;48.266;7.402;2023-01-10T08:00:10;100118.56;;;4.45;91.50
43147;BME280;28752;48.266;7.402;2023-01-10T08:02:36;100116.75;;;4.45;90.51
43147;BME280;28752;48.266;7.402;2023-01-10T08:05:01;100131.69;;;4.59;90.76
43147;BME280;28752;48.266;7.402;2023-01-10T08:07:30;100136.84;;;4.61;90.39
43147;BME280;28752;48.266;7.402;2023-01-10T08:09:56;100140.06;;;4.66;90.48
43147;BME280;28752;48.266;7.402;2023-01-10T08:12:22;100142.28;;;4.58;91.51
43147;BME280;28752;48.266;7.402;2023-01-10T08:14:50;100139.44;;;4.47;91.12
43147;BME280;28752;48.266;7.402;2023-01-10T08:17:16;100137.44;;;4.66;91.15
43147;BME280;28752;48.266;7.402;2023-01-10T08:19:41;100144.56;;;4.78;90.83
43147;BME280;28752;48.266;7.402;2023-01-10T08:22:07;100140.53;;;4.87;90.13
43147;BME280;28752;48.266;7.402;2023-01-10T08:24:33;100132.00;;;4.84;90.55
43147;BME280;28752;48.266;7.402;2023-01-10T08:26:59;100148.16;;;5.06;90.23
43147;BME280;28752;48.266;7.402;2023-01-10T08:29:24;100138.41;;;5.08;90.25
43147;BME280;28752;48.266;7.402;2023-01-10T08:31:49;100161.28;;;5.21;90.80
43147;BME280;28752;48.266;7.402;2023-01-10T08:34:15;100159.31;;;5.24;90.55
43147;BME280;28752;48.266;7.402;2023-01-10T08:36:41;100162.97;;;5.22;89.35
43147;BME280;28752;48.266;7.402;2023-01-10T08:39:07;100164.38;;;5.27;89.41
43147;BME280;28752;48.266;7.402;2023-01-10T08:41:32;100158.22;;;5.28;88.97
43147;BME280;28752;48.266;7.402;2023-01-10T08:43:57;100170.47;;;5.42;87.85
43147;BME280;28752;48.266;7.402;2023-01-10T08:46:23;100172.34;;;5.26;89.08
43147;BME280;28752;48.266;7.402;2023-01-10T08:48:48;100176.38;;;5.46;88.88
43147;BME280;28752;48.266;7.402;2023-01-10T08:51:15;100180.41;;;5.51;89.82
43147;BME280;28752;48.266;7.402;2023-01-10T08:53:41;100178.81;;;5.49;89.35
43147;BME280;28752;48.266;7.402;2023-01-10T08:56:07;100184.63;;;5.54;89.37
43147;BME280;28752;48.266;7.402;2023-01-10T08:58:33;100181.34;;;5.50;89.39
43147;BME280;28752;48.266;7.402;2023-01-10T09:00:59;100183.78;;;5.54;89.73
43147;BME280;28752;48.266;7.402;2023-01-10T09:03:27;100185.66;;;5.37;90.85
43147;BME280;28752;48.266;7.402;2023-01-10T09:05:52;100187.63;;;5.48;89.41
43147;BME280;28752;48.266;7.402;2023-01-10T09:08:18;100192.22;;;5.44;90.27
43147;BME280;28752;48.266;7.402;2023-01-10T09:10:43;100202.75;;;5.44;89.63
43147;BME280;28752;48.266;7.402;2023-01-10T09:13:08;100202.94;;;5.41;90.48
43147;BME280;28752;48.266;7.402;2023-01-10T09:15:36;100213.53;;;5.40;91.13
43147;BME280;28752;48.266;7.402;2023-01-10T09:18:04;100206.78;;;5.50;90.73
43147;BME280;28752;48.266;7.402;2023-01-10T09:20:30;100196.16;;;5.66;89.39
43147;BME280;28752;48.266;7.402;2023-01-10T09:22:57;100223.34;;;5.94;88.21
43147;BME280;28752;48.266;7.402;2023-01-10T09:25:23;100212.06;;;5.92;87.93
43147;BME280;28752;48.266;7.402;2023-01-10T09:27:56;100199.50;;;5.82;87.54
43147;BME280;28752;48.266;7.402;2023-01-10T09:30:22;100213.78;;;5.93;87.91
43147;BME280;28752;48.266;7.402;2023-01-10T09:32:51;100216.50;;;5.91;88.01
43147;BME280;28752;48.266;7.402;2023-01-10T09:35:17;100221.94;;;6.02;87.50
43147;BME280;28752;48.266;7.402;2023-01-10T09:37:42;100218.09;;;6.08;87.46
43147;BME280;28752;48.266;7.402;2023-01-10T09:40:13;100221.84;;;6.04;86.30
43147;BME280;28752;48.266;7.402;2023-01-10T09:42:59;100226.47;;;6.00;85.51
43147;BME280;28752;48.266;7.402;2023-01-10T09:48:26;100235.63;;;5.93;87.24
43147;BME280;28752;48.266;7.402;2023-01-10T09:53:23;100231.53;;;6.03;86.17
43147;BME280;28752;48.266;7.402;2023-01-10T09:55:54;100243.53;;;6.08;86.21
43147;BME280;28752;48.266;7.402;2023-01-10T09:58:25;100234.25;;;6.02;85.98
43147;BME280;28752;48.266;7.402;2023-01-10T10:01:05;100243.78;;;6.17;85.44
43147;BME280;28752;48.266;7.402;2023-01-10T10:06:21;100254.97;;;6.21;82.36
43147;BME280;28752;48.266;7.402;2023-01-10T10:08:46;100261.25;;;6.18;80.62
43147;BME280;28752;48.266;7.402;2023-01-10T10:16:31;100252.53;;;6.45;80.29
43147;BME280;28752;48.266;7.402;2023-01-10T10:19:05;100253.94;;;6.51;79.47
43147;BME280;28752;48.266;7.402;2023-01-10T10:33:05;100249.09;;;6.85;79.33
43147;BME280;28752;48.266;7.402;2023-01-10T10:35:50;100230.56;;;6.86;78.11
43147;BME280;28752;48.266;7.402;2023-01-10T10:38:24;100235.94;;;6.98;77.34
43147;BME280;28752;48.266;7.402;2023-01-10T10:40:54;100207.41;;;6.91;75.78
43147;BME280;28752;48.266;7.402;2023-01-10T10:43:22;100231.97;;;7.05;75.77
43147;BME280;28752;48.266;7.402;2023-01-10T10:46:00;100206.88;;;6.99;75.66
43147;BME280;28752;48.266;7.402;2023-01-10T10:48:30;100226.59;;;7.06;74.54
43147;BME280;28752;48.266;7.402;2023-01-10T10:53:32;100215.22;;;7.19;75.53
43147;BME280;28752;48.266;7.402;2023-01-10T10:55:59;100210.47;;;7.37;76.00
43147;BME280;28752;48.266;7.402;2023-01-10T10:58:27;100199.41;;;7.32;75.42
43147;BME280;28752;48.266;7.402;2023-01-10T11:00:55;100217.72;;;7.33;76.81
43147;BME280;28752;48.266;7.402;2023-01-10T11:03:41;100212.91;;;7.40;76.78
43147;BME280;28752;48.266;7.402;2023-01-10T11:06:08;100203.09;;;7.29;77.41
43147;BME280;28752;48.266;7.402;2023-01-10T11:08:37;100197.41;;;7.09;78.29
43147;BME280;28752;48.266;7.402;2023-01-10T11:11:15;100203.84;;;7.31;78.58
43147;BME280;28752;48.266;7.402;2023-01-10T11:13:53;100213.19;;;7.48;78.62
43147;BME280;28752;48.266;7.402;2023-01-10T11:16:39;100213.81;;;7.64;78.08
43147;BME280;28752;48.266;7.402;2023-01-10T11:22:00;100216.63;;;7.87;74.56
43147;BME280;28752;48.266;7.402;2023-01-10T11:24:37;100205.34;;;7.85;73.26
43147;BME280;28752;48.266;7.402;2023-01-10T11:27:20;100194.00;;;7.72;71.47
43147;BME280;28752;48.266;7.402;2023-01-10T11:29:49;100199.81;;;7.64;71.65
43147;BME280;28752;48.266;7.402;2023-01-10T11:32:21;100197.69;;;7.69;70.77
43147;BME280;28752;48.266;7.402;2023-01-10T11:35:02;100191.72;;;7.91;70.65
43147;BME280;28752;48.266;7.402;2023-01-10T11:37:32;100182.69;;;7.82;70.08
43147;BME280;28752;48.266;7.402;2023-01-10T11:40:21;100192.84;;;7.76;70.39
43147;BME280;28752;48.266;7.402;2023-01-10T11:42:51;100170.66;;;7.78;70.22
43147;BME280;28752;48.266;7.402;2023-01-10T11:48:04;100163.06;;;8.11;69.04
43147;BME280;28752;48.266;7.402;2023-01-10T11:50:35;100178.59;;;8.03;68.36
43147;BME280;28752;48.266;7.402;2023-01-10T11:53:03;100174.38;;;8.00;67.85
43147;BME280;28752;48.266;7.402;2023-01-10T11:55:32;100161.84;;;8.04;67.46
43147;BME280;28752;48.266;7.402;2023-01-10T11:58:06;100153.81;;;8.05;68.45
43147;BME280;28752;48.266;7.402;2023-01-10T12:00:44;100163.91;;;8.11;67.45
43147;BME280;28752;48.266;7.402;2023-01-10T12:03:22;100162.50;;;8.18;67.84
43147;BME280;28752;48.266;7.402;2023-01-10T12:06:01;100152.34;;;8.25;68.28
43147;BME280;28752;48.266;7.402;2023-01-10T12:08:30;100152.72;;;8.32;67.58
43147;BME280;28752;48.266;7.402;2023-01-10T12:11:01;100149.25;;;8.31;66.97
43147;BME280;28752;48.266;7.402;2023-01-10T12:13:28;100154.03;;;8.26;67.85
43147;BME280;28752;48.266;7.402;2023-01-10T12:16:30;100138.66;;;8.44;66.99
43147;BME280;28752;48.266;7.402;2023-01-10T12:19:00;100136.47;;;8.38;64.95
43147;BME280;28752;48.266;7.402;2023-01-10T12:21:37;100132.13;;;8.13;66.26
43147;BME280;28752;48.266;7.402;2023-01-10T12:24:13;100132.53;;;8.19;67.53
43147;BME280;28752;48.266;7.402;2023-01-10T12:26:42;100125.97;;;8.25;66.68
43147;BME280;28752;48.266;7.402;2023-01-10T12:29:13;100130.22;;;8.15;66.93
43147;BME280;28752;48.266;7.402;2023-01-10T12:31:43;100115.06;;;8.06;67.56
43147;BME280;28752;48.266;7.402;2023-01-10T12:34:19;100110.22;;;8.12;68.72
43147;BME280;28752;48.266;7.402;2023-01-10T12:36:53;100108.66;;;8.21;69.02
43147;BME280;28752;48.266;7.402;2023-01-10T12:39:26;100107.56;;;8.12;68.14
43147;BME280;28752;48.266;7.402;2023-01-10T12:45:12;100108.97;;;8.05;66.48
43147;BME280;28752;48.266;7.402;2023-01-10T12:47:59;100101.88;;;8.06;66.71
43147;BME280;28752;48.266;7.402;2023-01-10T12:50:38;100103.63;;;8.18;67.51
43147;BME280;28752;48.266;7.402;2023-01-10T12:55:40;100097.25;;;8.09;68.49
43147;BME280;28752;48.266;7.402;2023-01-10T12:58:16;100086.41;;;8.01;68.09
43147;BME280;28752;48.266;7.402;2023-01-10T13:00:49;100093.38;;;8.02;66.60
43147;BME280;28752;48.266;7.402;2023-01-10T13:03:19;100094.19;;;8.03;66.63
43147;BME280;28752;48.266;7.402;2023-01-10T13:05:46;100089.50;;;7.95;67.15
43147;BME280;28752;48.266;7.402;2023-01-10T13:08:16;100078.13;;;7.94;67.65
43147;BME280;28752;48.266;7.402;2023-01-10T13:10:44;100092.47;;;7.90;67.53
43147;BME280;28752;48.266;7.402;2023-01-10T13:16:02;100080.75;;;7.94;66.38
43147;BME280;28752;48.266;7.402;2023-01-10T13:18:30;100080.13;;;7.91;64.94
43147;BME280;28752;48.266;7.402;2023-01-10T13:21:11;100082.38;;;7.84;64.55
43147;BME280;28752;48.266;7.402;2023-01-10T13:23:50;100067.13;;;7.76;64.42
43147;BME280;28752;48.266;7.402;2023-01-10T13:26:18;100073.53;;;7.85;64.37
43147;BME280;28752;48.266;7.402;2023-01-10T13:33:52;100055.56;;;7.90;64.97
43147;BME280;28752;48.266;7.402;2023-01-10T13:36:21;100056.50;;;7.89;65.04
43147;BME280;28752;48.266;7.402;2023-01-10T13:39:03;100057.59;;;7.87;65.15
43147;BME280;28752;48.266;7.402;2023-01-10T13:42:37;100058.31;;;7.89;65.20
43147;BME280;28752;48.266;7.402;2023-01-10T14:04:26;100045.81;;;7.79;65.89
43147;BME280;28752;48.266;7.402;2023-01-10T14:06:56;100029.59;;;7.73;66.06
43147;BME280;28752;48.266;7.402;2023-01-10T14:11:53;100050.19;;;7.68;65.36
43147;BME280;28752;48.266;7.402;2023-01-10T14:14:32;100061.75;;;7.78;65.32
43147;BME280;28752;48.266;7.402;2023-01-10T14:17:29;100053.16;;;7.63;65.46
43147;BME280;28752;48.266;7.402;2023-01-10T14:20:05;100055.94;;;7.73;66.11
43147;BME280;28752;48.266;7.402;2023-01-10T14:22:33;100051.97;;;7.67;66.66
43147;BME280;28752;48.266;7.402;2023-01-10T14:25:02;100048.25;;;7.70;66.54
43147;BME280;28752;48.266;7.402;2023-01-10T14:27:42;100053.53;;;7.70;66.42
43147;BME280;28752;48.266;7.402;2023-01-10T14:30:15;100050.19;;;7.68;66.50
43147;BME280;28752;48.266;7.402;2023-01-10T14:32:41;100038.72;;;7.56;66.25
43147;BME280;28752;48.266;7.402;2023-01-10T14:35:13;100039.19;;;7.50;67.50
43147;BME280;28752;48.266;7.402;2023-01-10T14:37:49;100035.81;;;7.47;67.28
43147;BME280;28752;48.266;7.402;2023-01-10T14:40:24;100030.31;;;7.51;66.40
43147;BME280;28752;48.266;7.402;2023-01-10T14:42:52;100019.94;;;7.36;66.88
43147;BME280;28752;48.266;7.402;2023-01-10T14:46:03;100023.91;;;7.42;67.69
43147;BME280;28752;48.266;7.402;2023-01-10T14:48:48;99998.34;;;7.31;67.20
43147;BME280;28752;48.266;7.402;2023-01-10T14:53:42;100004.63;;;7.17;68.17
43147;BME280;28752;48.266;7.402;2023-01-10T14:56:24;100013.66;;;7.26;68.30
43147;BME280;28752;48.266;7.402;2023-01-10T14:58:50;100011.81;;;7.15;68.45
43147;BME280;28752;48.266;7.402;2023-01-10T15:01:22;99998.81;;;7.12;69.39
43147;BME280;28752;48.266;7.402;2023-01-10T15:03:48;100011.47;;;7.20;68.91